Time;durP1;ratioP1;P1;durP2;ratioP2;P2;SDS_P1;SDS_P2;PMS_P1;PMS_P2;Temp;Humidity;BMP_temperature;BMP_pressure;BME280_temperature;BME280_humidity;BME280_pressure;Samples;Min_cycle;Max_cycle;Signal;HPM_P1;HPM_P2
2021/08/10 00:02:01;;;;;;;3.80;0.90;;;15.10;81.30;;;;;;6245206;23;20023;-76
2021/08/10 00:04:33;;;;;;;5.85;1.10;;;15.00;81.20;;;;;;6249362;23;20027;-76
2021/08/10 00:07:00;;;;;;;4.95;1.55;;;15.00;81.40;;;;;;6253455;22;20359;-76
2021/08/10 00:09:34;;;;;;;5.28;1.15;;;15.00;81.40;;;;;;6248857;23;20087;-75
2021/08/10 00:12:03;;;;;;;2.17;0.90;;;15.10;81.40;;;;;;6250308;23;20082;-76
2021/08/10 00:14:37;;;;;;;3.83;0.95;;;15.10;81.60;;;;;;6252324;23;20015;-76
2021/08/10 00:17:06;;;;;;;2.00;0.90;;;15.10;81.40;;;;;;6253711;23;20023;-75
2021/08/10 00:19:33;;;;;;;4.68;1.15;;;15.10;81.40;;;;;;6250981;23;20188;-76
2021/08/10 00:22:01;;;;;;;6.68;1.30;;;15.10;81.20;;;;;;6254578;22;20024;-76
2021/08/10 00:24:33;;;;;;;3.55;1.13;;;15.20;81.20;;;;;;6251774;23;20209;-76
2021/08/10 00:27:02;;;;;;;6.00;1.38;;;15.20;81.10;;;;;;6252486;22;20075;-76
2021/08/10 00:29:34;;;;;;;2.60;1.05;;;15.10;81.30;;;;;;6252677;23;20023;-75
2021/08/10 00:32:01;;;;;;;4.45;1.38;;;15.10;81.50;;;;;;6252516;23;20031;-75
2021/08/10 00:34:30;;;;;;;4.10;1.25;;;15.10;81.30;;;;;;6251582;23;20035;-76
2021/08/10 00:36:58;;;;;;;3.05;1.27;;;15.10;81.40;;;;;;6250858;23;20035;-75
2021/08/10 00:39:25;;;;;;;3.55;1.20;;;15.00;81.40;;;;;;6252239;22;20020;-75
2021/08/10 00:41:52;;;;;;;8.45;1.25;;;15.00;81.50;;;;;;6251556;23;20233;-76
2021/08/10 00:44:20;;;;;;;4.97;1.25;;;15.10;81.40;;;;;;6248605;23;20390;-75
2021/08/10 00:46:49;;;;;;;2.93;1.10;;;15.10;81.30;;;;;;6247310;23;20048;-75
2021/08/10 00:49:16;;;;;;;3.70;1.30;;;15.10;81.40;;;;;;6246670;23;20427;-75
2021/08/10 00:51:46;;;;;;;2.78;1.17;;;15.10;81.30;;;;;;6249587;23;20034;-76
2021/08/10 00:54:16;;;;;;;3.33;0.90;;;15.10;81.40;;;;;;6248202;23;20322;-76
2021/08/10 00:56:47;;;;;;;3.25;1.00;;;15.20;81.20;;;;;;6249731;23;20035;-75
2021/08/10 00:59:17;;;;;;;2.45;1.10;;;15.20;80.90;;;;;;6251396;23;20024;-76
2021/08/10 01:01:50;;;;;;;3.28;1.13;;;15.10;81.20;;;;;;6243579;23;20047;-76
2021/08/10 01:04:17;;;;;;;2.10;1.05;;;15.10;81.40;;;;;;6245629;23;20106;-75
2021/08/10 01:06:59;;;;;;;2.60;0.90;;;15.20;81.10;;;;;;6241657;23;20393;-75
2021/08/10 01:09:30;;;;;;;5.47;1.00;;;15.10;81.10;;;;;;6247460;23;20066;-76
2021/08/10 01:12:07;;;;;;;3.85;0.75;;;14.90;81.60;;;;;;6248825;23;20019;-76
2021/08/10 01:14:43;;;;;;;2.55;0.95;;;15.10;81.50;;;;;;6248544;23;20036;-76
2021/08/10 01:17:19;;;;;;;2.40;0.98;;;15.00;81.40;;;;;;6237858;22;20034;-74
2021/08/10 01:20:25;;;;;;;3.10;0.80;;;15.10;81.30;;;;;;1647045;22;10021852;-75
2021/08/10 01:22:56;;;;;;;2.95;1.00;;;15.10;81.30;;;;;;4959703;23;10001111;-75
2021/08/10 01:25:34;;;;;;;1.38;0.65;;;15.20;81.10;;;;;;6247110;23;20028;-75
2021/08/10 01:28:29;;;;;;;2.08;0.85;;;15.10;81.00;;;;;;6244506;22;20032;-75
2021/08/10 01:31:13;;;;;;;3.83;0.75;;;15.10;81.00;;;;;;6244354;23;20028;-75
2021/08/10 01:33:49;;;;;;;2.67;1.10;;;15.10;81.30;;;;;;6270172;22;20047;-75
2021/08/10 01:36:19;;;;;;;2.15;1.00;;;15.00;81.30;;;;;;6270331;22;20051;-75
2021/08/10 01:38:53;;;;;;;2.78;1.15;;;15.00;81.70;;;;;;6243123;23;20316;-75
2021/08/10 01:41:22;;;;;;;4.28;0.88;;;14.90;81.70;;;;;;6246111;23;20027;-75
2021/08/10 01:43:52;;;;;;;2.58;0.90;;;15.00;81.90;;;;;;6244973;23;20072;-76
2021/08/10 01:46:26;;;;;;;3.65;1.20;;;15.00;81.90;;;;;;6247749;23;20584;-76
2021/08/10 01:48:59;;;;;;;3.15;0.85;;;15.00;81.70;;;;;;6245786;23;20212;-76
2021/08/10 01:51:30;;;;;;;3.60;1.08;;;15.00;81.70;;;;;;6246045;23;20035;-75
2021/08/10 01:54:01;;;;;;;5.80;1.25;;;15.00;81.70;;;;;;6243296;23;20028;-76
2021/08/10 01:56:33;;;;;;;3.92;1.30;;;14.90;81.90;;;;;;6245576;23;20054;-76
2021/08/10 01:59:10;;;;;;;4.47;1.20;;;14.90;82.10;;;;;;6246945;23;20043;-75
2021/08/10 02:01:46;;;;;;;3.55;1.77;;;14.80;82.30;;;;;;6240231;23;20032;-75
2021/08/10 02:04:19;;;;;;;3.85;1.10;;;14.90;82.40;;;;;;6246459;23;20027;-75
2021/08/10 02:06:49;;;;;;;2.25;0.95;;;14.90;82.20;;;;;;6243921;23;20031;-75
2021/08/10 02:09:20;;;;;;;4.68;1.05;;;14.90;82.30;;;;;;6243819;23;20070;-74
2021/08/10 02:11:50;;;;;;;4.00;1.10;;;14.90;82.20;;;;;;6223634;23;20020;-74
2021/08/10 02:14:22;;;;;;;3.10;0.93;;;14.80;82.50;;;;;;6248537;23;20303;-75
2021/08/10 02:16:53;;;;;;;2.70;1.20;;;14.70;83.00;;;;;;6247610;23;20055;-75
2021/08/10 02:19:22;;;;;;;3.85;1.35;;;14.70;83.00;;;;;;6246912;23;20030;-75
2021/08/10 02:21:57;;;;;;;;;;;14.80;82.70;;;;;;6245678;23;20020;-75
2021/08/10 02:24:28;;;;;;;3.55;1.30;;;14.90;82.50;;;;;;6245580;22;19966;-75
2021/08/10 02:27:03;;;;;;;4.43;1.20;;;14.90;82.40;;;;;;6246033;22;20027;-75
2021/08/10 02:29:35;;;;;;;5.03;1.30;;;14.80;82.90;;;;;;6246589;23;20261;-76
2021/08/10 02:32:06;;;;;;;4.18;1.42;;;14.70;83.00;;;;;;6249473;23;20256;-75
2021/08/10 02:34:38;;;;;;;5.07;1.40;;;14.80;83.10;;;;;;6271916;22;20111;-75
2021/08/10 02:37:07;;;;;;;3.33;0.98;;;14.70;82.90;;;;;;6248543;22;20024;-75
2021/08/10 02:39:37;;;;;;;6.00;1.20;;;14.70;83.20;;;;;;6245312;23;20024;-75
2021/08/10 02:42:07;;;;;;;3.92;0.90;;;14.60;83.50;;;;;;6245963;23;20032;-75
2021/08/10 02:44:37;;;;;;;3.35;0.90;;;14.60;83.40;;;;;;6240705;23;20048;-76
2021/08/10 02:47:09;;;;;;;2.15;0.88;;;14.60;83.70;;;;;;6244284;23;20028;-75
2021/08/10 02:49:36;;;;;;;2.33;0.90;;;14.50;84.20;;;;;;6242572;23;20020;-75
2021/08/10 02:52:04;;;;;;;2.53;0.82;;;14.40;84.20;;;;;;6244696;23;20016;-75
2021/08/10 02:54:36;;;;;;;3.42;1.08;;;14.40;84.10;;;;;;6243140;23;20027;-75
2021/08/10 02:57:10;;;;;;;3.58;1.38;;;14.50;84.10;;;;;;6245556;22;20016;-75
2021/08/10 02:59:43;;;;;;;2.75;1.10;;;14.60;84.10;;;;;;6247045;23;20027;-75
2021/08/10 03:02:16;;;;;;;5.72;1.40;;;14.60;84.10;;;;;;6238843;23;20451;-75
2021/08/10 03:04:49;;;;;;;4.32;1.45;;;14.60;83.90;;;;;;6246806;23;20032;-75
2021/08/10 03:07:17;;;;;;;4.85;1.60;;;14.60;84.00;;;;;;6244813;23;20034;-75
2021/08/10 03:09:48;;;;;;;5.72;1.10;;;14.60;84.10;;;;;;6245865;22;20324;-75
2021/08/10 03:12:19;;;;;;;4.55;1.10;;;14.60;84.00;;;;;;6243182;23;20353;-75
2021/08/10 03:14:47;;;;;;;4.45;1.20;;;14.70;83.80;;;;;;6246602;23;20472;-75
2021/08/10 03:17:20;;;;;;;4.65;1.38;;;14.70;83.60;;;;;;6245828;23;20044;-75
2021/08/10 03:19:49;;;;;;;5.82;1.27;;;14.80;83.40;;;;;;6246256;23;20114;-75
2021/08/10 03:22:17;;;;;;;4.80;1.50;;;14.90;83.20;;;;;;6245213;23;20020;-75
2021/08/10 03:24:48;;;;;;;3.20;1.40;;;15.00;83.00;;;;;;6245297;22;20039;-75
2021/08/10 03:27:16;;;;;;;4.82;1.02;;;14.90;83.10;;;;;;6244521;22;20328;-75
2021/08/10 03:29:45;;;;;;;4.35;1.38;;;14.90;83.00;;;;;;6247591;23;20026;-75
2021/08/10 03:32:16;;;;;;;3.83;1.10;;;14.90;83.10;;;;;;6246244;23;20027;-75
2021/08/10 03:34:48;;;;;;;4.28;1.67;;;14.90;83.30;;;;;;6248687;22;20308;-75
2021/08/10 03:37:17;;;;;;;3.38;1.40;;;14.80;83.40;;;;;;6247084;23;20331;-76
2021/08/10 03:39:45;;;;;;;2.45;1.20;;;14.90;83.30;;;;;;6245325;23;20070;-75
2021/08/10 03:42:14;;;;;;;3.90;1.42;;;14.90;83.20;;;;;;6274506;22;20055;-75
2021/08/10 03:44:43;;;;;;;2.08;0.88;;;14.90;83.20;;;;;;6246955;23;20027;-75
2021/08/10 03:47:11;;;;;;;5.82;1.02;;;14.90;83.10;;;;;;6246929;23;20062;-75
2021/08/10 03:49:39;;;;;;;5.25;1.10;;;14.90;83.10;;;;;;6248345;23;20030;-75
2021/08/10 03:52:11;;;;;;;4.75;1.30;;;14.80;83.40;;;;;;6249697;22;20024;-75
2021/08/10 03:54:39;;;;;;;3.35;1.20;;;14.70;83.90;;;;;;6247879;22;20303;-75
2021/08/10 03:57:08;;;;;;;3.58;1.10;;;14.70;83.80;;;;;;6245467;23;20035;-75
2021/08/10 03:59:36;;;;;;;2.83;1.10;;;14.70;83.80;;;;;;6245425;23;20030;-76
2021/08/10 04:02:06;;;;;;;2.08;0.88;;;14.70;83.80;;;;;;6242876;23;20050;-75
2021/08/10 04:04:35;;;;;;;3.15;1.15;;;14.60;84.00;;;;;;6246408;23;20020;-75
2021/08/10 04:07:07;;;;;;;7.55;1.55;;;14.60;84.20;;;;;;6244746;23;20020;-75
2021/08/10 04:09:38;;;;;;;3.13;1.33;;;14.60;84.30;;;;;;6246060;23;20039;-76
2021/08/10 04:12:09;;;;;;;3.65;1.08;;;14.60;84.40;;;;;;6245569;23;20490;-76
2021/08/10 04:14:41;;;;;;;5.55;1.50;;;14.60;84.70;;;;;;6242998;23;20083;-76
2021/08/10 04:17:12;;;;;;;4.43;1.40;;;14.60;84.70;;;;;;6247522;23;20028;-75
2021/08/10 04:19:48;;;;;;;6.28;1.25;;;14.50;84.80;;;;;;6242791;23;20062;-76
2021/08/10 04:22:17;;;;;;;4.30;1.60;;;14.50;84.50;;;;;;6242748;23;20028;-75
2021/08/10 04:24:47;;;;;;;13.10;1.40;;;14.30;85.00;;;;;;6245925;23;20208;-75
2021/08/10 04:27:16;;;;;;;4.30;1.35;;;14.30;85.40;;;;;;6241041;22;20020;-75
2021/08/10 04:29:45;;;;;;;2.55;0.85;;;14.20;85.60;;;;;;6244335;23;20324;-75
2021/08/10 04:32:12;;;;;;;5.57;1.08;;;14.30;85.60;;;;;;6248028;23;20114;-75
2021/08/10 04:34:42;;;;;;;3.30;1.30;;;14.30;85.50;;;;;;6244029;23;20343;-75
2021/08/10 04:37:09;;;;;;;3.33;1.08;;;14.40;85.40;;;;;;6245755;23;20028;-75
2021/08/10 04:39:41;;;;;;;3.83;1.25;;;14.50;85.10;;;;;;6243157;23;20332;-75
2021/08/10 04:42:13;;;;;;;2.97;1.20;;;14.50;85.20;;;;;;6244285;23;20028;-75
2021/08/10 04:44:41;;;;;;;3.42;1.25;;;14.40;85.30;;;;;;6243462;23;20574;-75
2021/08/10 04:47:08;;;;;;;3.63;0.98;;;14.50;85.20;;;;;;6243561;23;20283;-75
2021/08/10 04:49:39;;;;;;;3.72;1.10;;;14.50;85.20;;;;;;6243332;23;20028;-76
2021/08/10 04:52:07;;;;;;;3.95;1.20;;;14.60;85.00;;;;;;6244340;23;20028;-75
2021/08/10 04:54:40;;;;;;;4.68;0.93;;;14.50;84.90;;;;;;6245715;23;20024;-76
2021/08/10 04:57:07;;;;;;;3.13;1.20;;;14.40;85.40;;;;;;6243830;23;20087;-76
2021/08/10 04:59:36;;;;;;;3.78;1.25;;;14.60;84.90;;;;;;6245700;23;20020;-76
2021/08/10 05:02:04;;;;;;;2.88;1.23;;;14.70;84.50;;;;;;6241766;22;20024;-75
2021/08/10 05:04:32;;;;;;;4.20;1.20;;;14.70;84.50;;;;;;6243983;23;20330;-76
2021/08/10 05:07:02;;;;;;;6.85;1.17;;;14.80;84.40;;;;;;6271310;22;20035;-75
2021/08/10 05:09:32;;;;;;;5.90;1.40;;;14.80;84.40;;;;;;6241928;23;20056;-76
2021/08/10 05:12:01;;;;;;;2.70;0.88;;;15.00;83.90;;;;;;6245901;23;20035;-76
2021/08/10 05:14:31;;;;;;;2.67;1.35;;;15.00;83.60;;;;;;6247730;23;20028;-76
2021/08/10 05:17:01;;;;;;;5.20;1.40;;;15.10;83.50;;;;;;6246506;23;20034;-75
2021/08/10 05:19:28;;;;;;;4.35;1.23;;;15.10;83.90;;;;;;6246856;23;20354;-75
2021/08/10 05:21:56;;;;;;;3.50;1.10;;;15.10;83.30;;;;;;6245842;23;20031;-75
2021/08/10 05:24:24;;;;;;;8.70;3.25;;;15.10;83.50;;;;;;6244980;23;20308;-76
2021/08/10 05:26:51;;;;;;;5.05;1.40;;;15.10;83.30;;;;;;6246824;22;20092;-75
2021/08/10 05:29:18;;;;;;;4.40;1.10;;;15.10;83.50;;;;;;6246149;23;20016;-75
2021/08/10 05:31:46;;;;;;;2.72;1.00;;;15.10;83.50;;;;;;6244998;23;20024;-75
2021/08/10 05:34:15;;;;;;;5.78;1.10;;;15.20;83.40;;;;;;6249387;23;20035;-75
2021/08/10 05:36:42;;;;;;;6.40;1.42;;;15.30;83.20;;;;;;6245289;23;20028;-75
2021/08/10 05:39:10;;;;;;;4.68;1.38;;;15.40;83.10;;;;;;6247461;23;20066;-75
2021/08/10 05:41:37;;;;;;;5.20;1.98;;;15.50;82.90;;;;;;6246870;23;20024;-76
2021/08/10 05:44:05;;;;;;;3.42;1.10;;;15.60;82.60;;;;;;6271401;22;20020;-76
2021/08/10 05:46:33;;;;;;;3.63;1.15;;;15.60;82.40;;;;;;6245933;23;20024;-75
2021/08/10 05:49:00;;;;;;;3.70;1.58;;;15.60;82.00;;;;;;6246233;23;20050;-75
2021/08/10 05:51:32;;;;;;;4.70;1.00;;;15.70;82.10;;;;;;6248635;23;20038;-75
2021/08/10 05:53:59;;;;;;;5.18;1.50;;;15.70;81.60;;;;;;6248251;22;20296;-75
2021/08/10 05:56:27;;;;;;;4.93;1.10;;;15.70;81.90;;;;;;6246355;23;20042;-75
2021/08/10 05:58:54;;;;;;;5.25;1.15;;;15.70;81.70;;;;;;6248871;22;20023;-75
2021/08/10 06:01:22;;;;;;;3.45;1.10;;;15.70;81.40;;;;;;6243919;23;20024;-75
2021/08/10 06:03:49;;;;;;;2.30;1.00;;;15.70;81.50;;;;;;6245523;23;20011;-75
2021/08/10 06:06:20;;;;;;;3.83;1.02;;;15.70;81.70;;;;;;6245990;23;20031;-75
2021/08/10 06:08:52;;;;;;;8.48;1.27;;;15.70;81.90;;;;;;6244314;23;20020;-75
2021/08/10 06:11:20;;;;;;;4.00;1.20;;;15.90;81.70;;;;;;6244864;23;20031;-75
2021/08/10 06:13:49;;;;;;;4.90;1.23;;;16.00;81.10;;;;;;6244047;23;20024;-75
2021/08/10 06:16:16;;;;;;;6.35;1.45;;;16.10;80.20;;;;;;6247879;23;20020;-75
2021/08/10 06:18:44;;;;;;;4.50;1.40;;;16.10;80.30;;;;;;6243092;23;20367;-75
2021/08/10 06:21:19;;;;;;;3.78;1.23;;;16.00;80.50;;;;;;6245383;23;20031;-75
2021/08/10 06:23:46;;;;;;;3.30;1.10;;;16.00;80.60;;;;;;6272139;22;20070;-75
2021/08/10 06:26:15;;;;;;;6.18;1.58;;;15.90;81.30;;;;;;6245341;22;20027;-75
2021/08/10 06:28:46;;;;;;;4.38;1.48;;;15.90;81.60;;;;;;6248697;22;20023;-75
2021/08/10 06:31:13;;;;;;;6.35;1.60;;;15.70;81.60;;;;;;6243822;23;20020;-75
2021/08/10 06:33:41;;;;;;;4.03;1.73;;;15.90;81.60;;;;;;6247088;23;20023;-75
2021/08/10 06:36:15;;;;;;;2.95;1.20;;;15.80;81.40;;;;;;6249589;23;20019;-75
2021/08/10 06:38:43;;;;;;;2.72;1.23;;;15.80;81.70;;;;;;6242399;23;20035;-75
2021/08/10 06:41:11;;;;;;;5.68;1.58;;;15.80;82.40;;;;;;6245003;23;20023;-75
2021/08/10 06:43:40;;;;;;;4.28;1.20;;;15.80;82.20;;;;;;6245083;23;20091;-75
2021/08/10 06:46:37;;;;;;;2.70;1.02;;;15.90;81.90;;;;;;6222431;23;20103;-75
2021/08/10 06:49:09;;;;;;;3.55;1.40;;;16.00;81.60;;;;;;6246267;23;20367;-75
2021/08/10 06:51:37;;;;;;;3.58;1.48;;;16.10;81.20;;;;;;6248083;22;20062;-75
2021/08/10 06:54:05;;;;;;;5.85;1.45;;;16.10;81.20;;;;;;6248070;23;20028;-75
2021/08/10 06:56:34;;;;;;;5.70;1.30;;;16.10;81.10;;;;;;6243987;23;20480;-75
2021/08/10 06:59:04;;;;;;;5.63;1.30;;;16.10;81.20;;;;;;6244481;23;20020;-76
2021/08/10 07:01:35;;;;;;;5.35;1.77;;;16.20;81.10;;;;;;6241284;23;20216;-76
2021/08/10 07:04:03;;;;;;;4.25;1.45;;;16.30;80.90;;;;;;6249135;23;20050;-75
2021/08/10 07:06:31;;;;;;;4.18;1.48;;;16.20;81.10;;;;;;6242250;23;20299;-75
2021/08/10 07:09:04;;;;;;;2.17;1.25;;;16.10;81.40;;;;;;6247649;23;20020;-75
2021/08/10 07:11:34;;;;;;;4.88;1.50;;;16.10;81.50;;;;;;6249332;23;20031;-75
2021/08/10 07:14:02;;;;;;;3.83;1.48;;;16.20;81.20;;;;;;6245347;23;20328;-75
2021/08/10 07:16:34;;;;;;;5.07;1.42;;;16.30;81.00;;;;;;6247579;23;20018;-75
2021/08/10 07:19:06;;;;;;;7.22;1.48;;;16.60;80.40;;;;;;6244142;23;20028;-76
2021/08/10 07:21:35;;;;;;;3.47;1.17;;;16.60;80.20;;;;;;6243992;23;20024;-75
2021/08/10 07:24:08;;;;;;;8.27;1.30;;;16.80;79.30;;;;;;6244783;23;20353;-74
2021/08/10 07:26:39;;;;;;;3.05;1.20;;;17.10;79.00;;;;;;6247580;22;20032;-76
2021/08/10 07:29:06;;;;;;;7.15;1.80;;;17.30;78.10;;;;;;6246921;22;20027;-76
2021/08/10 07:31:35;;;;;;;3.53;1.70;;;17.50;77.40;;;;;;6246136;23;20030;-77
2021/08/10 07:34:08;;;;;;;5.65;1.38;;;17.40;77.30;;;;;;6249057;23;20088;-77
2021/08/10 07:36:37;;;;;;;3.35;1.05;;;17.40;77.50;;;;;;6248492;23;20028;-77
2021/08/10 07:39:05;;;;;;;4.30;1.40;;;17.30;77.60;;;;;;6250378;22;20016;-77
2021/08/10 07:41:33;;;;;;;4.90;1.52;;;17.30;77.40;;;;;;6276412;22;20016;-76
2021/08/10 07:44:06;;;;;;;3.92;1.75;;;17.50;77.20;;;;;;6251150;23;20343;-76
2021/08/10 07:46:40;;;;;;;5.70;2.13;;;17.60;76.50;;;;;;6249672;23;20331;-76
2021/08/10 07:49:08;;;;;;;2.97;1.27;;;18.00;76.00;;;;;;6246448;23;20032;-76
2021/08/10 07:51:35;;;;;;;3.60;1.42;;;18.20;75.40;;;;;;6247506;23;20438;-76
2021/08/10 07:54:03;;;;;;;4.90;1.98;;;18.20;74.90;;;;;;6251079;23;20043;-76
2021/08/10 07:56:31;;;;;;;7.00;1.25;;;18.10;75.50;;;;;;6250362;23;20028;-76
2021/08/10 07:58:58;;;;;;;1.45;0.85;;;18.30;75.50;;;;;;6250853;23;20028;-76
2021/08/10 08:01:27;;;;;;;3.50;1.30;;;18.40;74.80;;;;;;6244182;23;20028;-75
2021/08/10 08:03:55;;;;;;;2.80;1.02;;;18.50;74.30;;;;;;6246538;22;20075;-75
2021/08/10 08:06:23;;;;;;;2.85;1.33;;;18.50;73.80;;;;;;6250064;22;20020;-76
2021/08/10 08:08:51;;;;;;;3.00;1.73;;;18.60;74.30;;;;;;6249466;23;20020;-75
2021/08/10 08:11:23;;;;;;;5.65;1.27;;;18.70;73.90;;;;;;6246509;23;20244;-75
2021/08/10 08:13:52;;;;;;;2.80;1.40;;;18.90;73.00;;;;;;6247802;23;20028;-75
2021/08/10 08:16:19;;;;;;;5.45;1.70;;;18.70;73.70;;;;;;6248630;23;20091;-76
2021/08/10 08:18:47;;;;;;;8.13;1.70;;;18.90;72.00;;;;;;6248156;22;20024;-78
2021/08/10 08:21:20;;;;;;;11.90;4.13;;;19.10;71.80;;;;;;6250383;23;20024;-75
2021/08/10 08:23:53;;;;;;;9.05;2.55;;;19.30;71.10;;;;;;6247808;23;20028;-75
2021/08/10 08:26:22;;;;;;;9.82;4.13;;;19.50;70.70;;;;;;6248759;22;20028;-76
2021/08/10 08:28:50;;;;;;;4.15;1.45;;;19.70;69.80;;;;;;6250689;23;20020;-75
2021/08/10 08:31:17;;;;;;;6.35;1.50;;;20.00;70.10;;;;;;6249597;23;20016;-75
2021/08/10 08:33:47;;;;;;;5.07;1.30;;;20.10;70.10;;;;;;6248697;23;20215;-75
2021/08/10 08:36:14;;;;;;;4.47;1.60;;;20.00;70.30;;;;;;6245160;23;20020;-75
2021/08/10 08:38:43;;;;;;;2.20;1.10;;;19.90;70.20;;;;;;6249151;23;20028;-75
2021/08/10 08:41:11;;;;;;;3.17;1.38;;;19.80;70.30;;;;;;6247949;23;20031;-75
2021/08/10 08:43:39;;;;;;;5.45;1.45;;;19.70;71.00;;;;;;6249822;23;20058;-75
2021/08/10 08:46:08;;;;;;;3.30;1.95;;;19.60;71.30;;;;;;6250061;23;20066;-76
2021/08/10 08:48:42;;;;;;;4.35;1.73;;;19.70;70.90;;;;;;6248693;23;20028;-76
2021/08/10 08:51:11;;;;;;;4.32;1.50;;;19.70;70.30;;;;;;6275290;22;20038;-75
2021/08/10 08:53:52;;;;;;;3.50;1.40;;;20.30;69.20;;;;;;6247584;23;20308;-75
2021/08/10 08:56:22;;;;;;;6.43;1.70;;;20.80;68.10;;;;;;6252114;23;20235;-76
2021/08/10 08:58:55;;;;;;;3.20;1.33;;;20.80;67.50;;;;;;6251129;23;20028;-75
2021/08/10 09:01:24;;;;;;;7.78;2.30;;;20.60;67.00;;;;;;6244302;23;20028;-76
2021/08/10 09:03:52;;;;;;;5.50;1.40;;;20.30;67.90;;;;;;6251928;23;20035;-75
2021/08/10 09:06:21;;;;;;;5.40;1.98;;;20.30;68.10;;;;;;6249586;23;20223;-76
2021/08/10 09:08:53;;;;;;;8.53;2.10;;;20.90;67.60;;;;;;6251363;23;20028;-75
2021/08/10 09:11:23;;;;;;;5.15;1.65;;;21.60;65.00;;;;;;6251752;23;20016;-75
2021/08/10 09:13:55;;;;;;;;;;;21.80;63.80;;;;;;6252167;23;20020;-76
2021/08/10 09:16:23;;;;;;;4.30;1.48;;;22.10;62.70;;;;;;6249995;23;19942;-76
2021/08/10 09:18:51;;;;;;;4.35;1.75;;;22.70;61.40;;;;;;6247629;23;20020;-75
2021/08/10 09:21:33;;;;;;;5.15;1.15;;;23.10;60.10;;;;;;6249170;23;20046;-76
2021/08/10 09:24:14;;;;;;;5.50;1.80;;;23.00;60.00;;;;;;6251995;23;20032;-75
2021/08/10 09:26:44;;;;;;;3.00;1.60;;;22.80;60.30;;;;;;6248283;22;20028;-75
2021/08/10 09:29:22;;;;;;;3.97;1.05;;;22.70;60.40;;;;;;6246319;23;20039;-75
2021/08/10 09:31:53;;;;;;;;;;;22.50;60.80;;;;;;6252122;23;20228;-75
2021/08/10 09:34:28;;;;;;;3.58;1.35;;;22.20;62.00;;;;;;6252239;23;19911;-75
2021/08/10 09:36:59;;;;;;;3.83;1.13;;;22.10;62.30;;;;;;6242655;23;20250;-75
2021/08/10 09:39:33;;;;;;;4.60;1.17;;;22.30;62.10;;;;;;6246950;23;20039;-75
2021/08/10 09:42:02;;;;;;;4.82;1.48;;;22.60;61.00;;;;;;6245768;23;20015;-75
2021/08/10 09:44:30;;;;;;;4.35;1.42;;;22.80;60.00;;;;;;6246189;23;20055;-76
2021/08/10 09:46:57;;;;;;;3.75;1.00;;;22.60;59.80;;;;;;6244302;23;20012;-75
2021/08/10 09:49:42;;;;;;;4.65;1.10;;;22.40;59.50;;;;;;6246253;23;20047;-76
2021/08/10 09:52:23;;;;;;;4.30;1.20;;;22.20;60.40;;;;;;6244130;23;20024;-75
2021/08/10 09:54:52;;;;;;;2.40;1.30;;;22.10;60.60;;;;;;6272389;22;20417;-75
2021/08/10 09:57:19;;;;;;;4.30;1.42;;;22.20;60.60;;;;;;6271513;22;20027;-76
2021/08/10 09:59:47;;;;;;;6.57;1.45;;;22.60;60.60;;;;;;6248642;23;20024;-75
2021/08/10 10:02:19;;;;;;;4.00;1.30;;;22.80;58.90;;;;;;6240781;23;20030;-76
2021/08/10 10:04:51;;;;;;;4.20;1.50;;;23.20;58.50;;;;;;6249303;23;20087;-76
2021/08/10 10:07:19;;;;;;;4.30;1.52;;;23.50;57.40;;;;;;6248884;23;20316;-76
2021/08/10 10:09:54;;;;;;;3.67;1.15;;;23.80;56.40;;;;;;6245561;23;20012;-75
2021/08/10 10:12:26;;;;;;;2.25;1.33;;;24.60;54.60;;;;;;6246306;23;20070;-75
2021/08/10 10:15:00;;;;;;;6.28;1.40;;;25.00;52.10;;;;;;6245653;23;20235;-75
2021/08/10 10:17:33;;;;;;;2.67;1.30;;;25.40;52.50;;;;;;6247812;23;20074;-75
2021/08/10 10:20:03;;;;;;;2.88;1.00;;;25.90;48.60;;;;;;6250530;22;20103;-75
2021/08/10 10:22:33;;;;;;;5.50;1.40;;;25.20;50.90;;;;;;6248525;23;20378;-77
2021/08/10 10:25:03;;;;;;;2.55;1.13;;;26.80;47.20;;;;;;6246530;23;20023;-75
2021/08/10 10:27:34;;;;;;;3.78;1.10;;;27.10;46.60;;;;;;6249879;22;20074;-76
2021/08/10 10:30:02;;;;;;;7.55;1.58;;;28.50;44.30;;;;;;6252001;22;20074;-76
2021/08/10 10:32:29;;;;;;;5.05;1.73;;;29.30;40.90;;;;;;6249503;22;20050;-76
2021/08/10 10:34:56;;;;;;;3.67;1.20;;;28.70;41.00;;;;;;6246117;23;20028;-76
2021/08/10 10:37:27;;;;;;;7.35;2.08;;;27.60;43.60;;;;;;6247569;22;20027;-76
2021/08/10 10:39:59;;;;;;;2.95;1.20;;;27.50;43.60;;;;;;6247318;23;20024;-76
2021/08/10 10:42:29;;;;;;;3.80;1.10;;;28.70;41.30;;;;;;6247012;23;20020;-75
2021/08/10 10:44:56;;;;;;;;;;;28.90;42.10;;;;;;6272313;22;20021;-76
2021/08/10 10:47:37;;;;;;;5.35;1.17;;;29.00;40.40;;;;;;6248747;22;20294;-76
2021/08/10 10:50:16;;;;;;;3.65;1.25;;;29.50;39.50;;;;;;6244766;23;20074;-76
2021/08/10 10:53:03;;;;;;;5.78;1.40;;;28.90;39.50;;;;;;6248223;22;20020;-75
2021/08/10 10:55:36;;;;;;;2.15;0.90;;;28.40;41.40;;;;;;6247592;23;20016;-75
2021/08/10 10:58:30;;;;;;;3.63;1.02;;;29.60;40.40;;;;;;6248232;22;20031;-76
2021/08/10 11:01:20;;;;;;;6.30;1.10;;;30.20;38.20;;;;;;6241367;23;20082;-76
2021/08/10 11:04:12;;;;;;;3.58;1.20;;;31.20;37.00;;;;;;6247358;22;20070;-76
2021/08/10 11:06:43;;;;;;;5.07;1.42;;;32.60;35.20;;;;;;6246876;22;20320;-75
2021/08/10 11:09:48;;;;;;;3.10;1.33;;;29.10;39.50;;;;;;6249234;23;20016;-76
2021/08/10 11:12:34;;;;;;;2.33;1.10;;;27.20;43.70;;;;;;6226910;23;20397;-76
2021/08/10 11:15:03;;;;;;;4.00;1.25;;;25.90;47.10;;;;;;6251161;22;20024;-76
2021/08/10 11:17:30;;;;;;;3.38;1.17;;;26.10;47.40;;;;;;6250164;23;20265;-76
2021/08/10 11:19:57;;;;;;;3.63;1.27;;;27.10;45.50;;;;;;6248782;23;20320;-75
2021/08/10 11:22:26;;;;;;;4.93;1.60;;;26.60;46.20;;;;;;6249086;22;20020;-76
2021/08/10 11:24:55;;;;;;;4.60;1.42;;;29.50;40.10;;;;;;6246773;22;20043;-75
2021/08/10 11:27:34;;;;;;;3.88;1.33;;;28.90;39.50;;;;;;6247781;22;20319;-77
2021/08/10 11:30:07;;;;;;;2.30;1.13;;;29.70;39.10;;;;;;6251978;22;20358;-76
2021/08/10 11:32:40;;;;;;;3.88;2.00;;;30.90;36.70;;;;;;6247659;22;20047;-76
2021/08/10 11:35:33;;;;;;;3.13;1.20;;;30.20;37.30;;;;;;6247548;23;20028;-75
2021/08/10 11:38:09;;;;;;;3.58;1.13;;;30.10;39.10;;;;;;6246762;23;20039;-75
2021/08/10 11:40:54;;;;;;;1.60;0.93;;;31.60;34.60;;;;;;6248789;23;20048;-76
2021/08/10 11:43:24;;;;;;;5.03;1.10;;;32.50;32.80;;;;;;6246851;23;20024;-76
2021/08/10 11:45:53;;;;;;;;;;;31.50;35.00;;;;;;6250151;22;20016;-76
2021/08/10 11:48:22;;;;;;;3.65;1.10;;;32.20;33.40;;;;;;6249557;23;19927;-75
2021/08/10 11:50:50;;;;;;;6.55;1.65;;;32.90;32.90;;;;;;6250122;22;20024;-76
2021/08/10 11:53:31;;;;;;;2.28;1.15;;;34.50;31.20;;;;;;6249741;22;20284;-75
2021/08/10 11:55:58;;;;;;;3.17;1.10;;;32.30;33.40;;;;;;6248720;23;20462;-75
2021/08/10 11:58:44;;;;;;;4.60;1.10;;;32.80;32.90;;;;;;6251151;22;20347;-75
2021/08/10 12:01:12;;;;;;;3.80;1.38;;;33.30;31.80;;;;;;6244491;22;20312;-76
2021/08/10 12:03:40;;;;;;;3.22;1.15;;;32.30;33.10;;;;;;6248420;23;20374;-76
2021/08/10 12:06:07;;;;;;;4.75;1.42;;;31.70;34.90;;;;;;6249181;22;20062;-76
2021/08/10 12:08:34;;;;;;;5.30;1.38;;;32.50;32.90;;;;;;6248451;22;20024;-76
2021/08/10 12:11:02;;;;;;;4.65;1.25;;;30.40;36.20;;;;;;6250067;23;20024;-74
2021/08/10 12:13:30;;;;;;;3.58;1.35;;;29.00;38.60;;;;;;6250064;23;20020;-76
2021/08/10 12:15:58;;;;;;;3.33;0.90;;;27.60;42.40;;;;;;6247995;22;20079;-76
2021/08/10 12:18:28;;;;;;;4.00;1.40;;;26.90;43.20;;;;;;6248508;23;20016;-76
2021/08/10 12:21:01;;;;;;;4.13;1.40;;;26.50;44.70;;;;;;6247061;23;20282;-76
2021/08/10 12:23:38;;;;;;;3.33;1.00;;;26.50;44.20;;;;;;6249940;22;20303;-76
2021/08/10 12:26:11;;;;;;;2.67;1.17;;;29.10;38.90;;;;;;6250646;22;20023;-75
2021/08/10 12:29:05;;;;;;;2.20;1.08;;;29.30;38.00;;;;;;6246733;23;20336;-75
2021/08/10 12:31:34;;;;;;;3.50;1.63;;;27.80;40.50;;;;;;6241500;22;20079;-75
2021/08/10 12:34:03;;;;;;;2.55;1.10;;;28.90;39.70;;;;;;6250600;23;20079;-76
2021/08/10 12:36:31;;;;;;;3.10;1.40;;;29.10;39.30;;;;;;6245890;23;20123;-75
2021/08/10 12:39:03;;;;;;;2.97;1.20;;;30.30;36.50;;;;;;6247851;22;20024;-75
2021/08/10 12:41:30;;;;;;;2.72;0.93;;;30.20;36.20;;;;;;6248685;23;20093;-75
2021/08/10 12:43:59;;;;;;;3.65;1.42;;;28.30;40.30;;;;;;6248425;23;20012;-75
2021/08/10 12:46:28;;;;;;;4.10;1.27;;;27.90;41.50;;;;;;6247350;23;20332;-75
2021/08/10 12:49:33;;;;;;;3.10;1.30;;;27.30;42.90;;;;;;6246308;22;20200;-74
2021/08/10 12:52:02;;;;;;;3.60;1.50;;;27.30;44.70;;;;;;6198663;22;20204;-74
2021/08/10 12:54:35;;;;;;;3.03;1.40;;;27.50;45.60;;;;;;6247998;23;20024;-75
2021/08/10 12:57:03;;;;;;;;;;;28.90;43.50;;;;;;6245863;23;20362;-75
2021/08/10 12:59:42;;;;;;;3.75;1.52;;;28.70;43.40;;;;;;6246052;23;19956;-74
2021/08/10 13:02:09;;;;;;;3.13;1.20;;;27.90;45.20;;;;;;6242028;23;20024;-74
2021/08/10 13:04:39;;;;;;;2.72;1.17;;;28.40;43.60;;;;;;6247384;22;20309;-74
2021/08/10 13:07:17;;;;;;;6.05;1.15;;;29.10;43.00;;;;;;6248068;22;20027;-74
2021/08/10 13:09:52;;;;;;;3.38;1.02;;;29.50;41.10;;;;;;6244406;23;20031;-74